createdAt,value
2018-11-01T00:00:40.952Z,7.53
2018-11-01T00:11:22.387Z,7.67
2018-11-01T00:15:15.163Z,8.00
2018-11-01T00:17:52.411Z,7.70
2018-11-01T00:20:34.598Z,7.57
2018-11-01T00:46:21.467Z,10.47
2018-11-01T00:48:49.645Z,8.60
2018-11-01T00:51:24.679Z,8.53
2018-11-01T00:53:58.895Z,8.07
2018-11-01T02:07:51.111Z,8.73
2018-11-01T02:16:34.673Z,8.97
2018-11-01T03:03:14.079Z,15.30
2018-11-01T03:05:41.546Z,14.40
2018-11-01T03:08:09.077Z,14.50
2018-11-01T03:10:36.554Z,13.03
2018-11-01T03:13:04.118Z,14.67
2018-11-01T03:15:32.354Z,15.97
2018-11-01T03:17:59.821Z,14.87
2018-11-01T03:20:27.214Z,14.60
2018-11-01T03:22:54.610Z,14.03
2018-11-01T03:25:22.254Z,15.03
2018-11-01T03:27:49.836Z,15.40
2018-11-01T03:30:17.274Z,14.87
2018-11-01T03:32:44.713Z,14.07
2018-11-01T03:35:12.176Z,13.07
2018-11-01T03:37:40.201Z,13.63
2018-11-01T03:40:08.651Z,12.83
2018-11-01T03:42:36.106Z,13.93
2018-11-01T03:45:04.154Z,12.63
2018-11-01T03:47:31.594Z,12.60
2018-11-01T03:49:59.009Z,12.70
2018-11-01T03:52:26.433Z,12.23
2018-11-01T03:54:53.922Z,12.03
2018-11-01T03:57:21.333Z,13.03
2018-11-01T03:59:48.737Z,13.17
2018-11-01T04:02:16.150Z,14.93
2018-11-01T04:04:43.585Z,13.43
2018-11-01T04:07:10.967Z,13.20
2018-11-01T04:09:38.372Z,15.93
2018-11-01T04:12:05.857Z,14.90
2018-11-01T04:14:33.257Z,14.63
2018-11-01T04:17:00.699Z,13.37
2018-11-01T04:19:28.098Z,13.87
2018-11-01T04:22:00.140Z,13.73
2018-11-01T04:24:27.553Z,14.60
2018-11-01T04:26:54.969Z,14.77
2018-11-01T04:29:22.381Z,15.90
2018-11-01T04:31:49.845Z,14.73
2018-11-01T04:34:17.317Z,15.07
2018-11-01T04:36:44.714Z,13.10
2018-11-01T04:39:12.113Z,14.13
2018-11-01T04:41:39.599Z,13.70
2018-11-01T04:44:07.294Z,14.00
2018-11-01T04:46:34.673Z,15.30
2018-11-01T04:49:02.247Z,15.17
2018-11-01T04:51:29.659Z,15.33
2018-11-01T04:53:57.092Z,15.20
2018-11-01T04:56:24.513Z,14.83
2018-11-01T04:58:51.909Z,15.93
2018-11-01T05:01:22.078Z,15.47
2018-11-01T05:03:51.036Z,14.27
2018-11-01T05:06:18.842Z,14.70
2018-11-01T05:08:46.244Z,15.23
2018-11-01T05:11:13.653Z,15.07
2018-11-01T05:13:41.106Z,13.57
2018-11-01T05:16:08.562Z,14.87
2018-11-01T05:18:36.012Z,14.40
2018-11-01T05:21:03.466Z,14.50
2018-11-01T05:23:30.871Z,14.70
2018-11-01T05:25:58.323Z,13.87
2018-11-01T05:28:25.697Z,13.63
2018-11-01T05:30:53.153Z,14.57
2018-11-01T05:33:20.522Z,14.73
2018-11-01T05:35:47.933Z,15.90
2018-11-01T05:38:15.389Z,14.80
2018-11-01T05:40:42.792Z,15.40
2018-11-01T05:43:14.793Z,15.40
2018-11-01T05:45:42.210Z,15.43
2018-11-01T05:48:09.781Z,15.77
2018-11-01T05:50:37.184Z,15.67
2018-11-01T05:53:04.868Z,16.20
2018-11-01T05:55:32.265Z,16.23
2018-11-01T05:57:59.657Z,13.97
2018-11-01T06:00:27.070Z,15.03
2018-11-01T06:02:54.522Z,15.37
2018-11-01T06:05:22.092Z,16.03
2018-11-01T06:07:52.495Z,15.40
2018-11-01T06:10:19.998Z,15.50
2018-11-01T06:12:47.413Z,16.17
2018-11-01T06:15:14.875Z,16.10
2018-11-01T06:17:42.429Z,15.70
2018-11-01T06:20:10.482Z,16.23
2018-11-01T06:22:37.888Z,16.43
2018-11-01T06:25:05.988Z,16.87
2018-11-01T06:27:33.425Z,15.73
2018-11-01T06:30:00.919Z,15.50
2018-11-01T06:32:28.359Z,14.67
2018-11-01T06:34:57.913Z,14.97
2018-11-01T06:37:25.345Z,15.50
2018-11-01T06:39:52.819Z,15.20
2018-11-01T06:42:20.241Z,14.13
2018-11-01T06:44:47.675Z,14.30
2018-11-01T06:47:15.166Z,13.77
2018-11-01T06:49:42.576Z,13.77
2018-11-01T06:52:09.976Z,14.23
2018-11-01T06:54:37.401Z,13.87
2018-11-01T06:57:04.842Z,14.50
2018-11-01T06:59:32.258Z,14.73
2018-11-01T07:01:59.681Z,14.73
2018-11-01T07:04:27.064Z,13.87
2018-11-01T07:06:54.482Z,13.73
2018-11-01T07:09:21.943Z,14.53
2018-11-01T07:11:49.323Z,13.67
2018-11-01T07:14:16.709Z,14.13
2018-11-01T07:16:44.201Z,13.23
2018-11-01T07:19:11.585Z,13.70
2018-11-01T07:21:38.989Z,13.40
2018-11-01T07:24:06.426Z,13.13
2018-11-01T07:26:34.043Z,13.20
2018-11-01T07:29:01.329Z,13.73
2018-11-01T07:31:28.796Z,13.23
2018-11-01T07:33:56.232Z,13.03
2018-11-01T07:36:23.632Z,13.90
2018-11-01T07:38:51.502Z,12.70
2018-11-01T07:41:19.307Z,13.10
2018-11-01T07:43:46.766Z,12.33
2018-11-01T07:46:14.672Z,13.37
2018-11-01T07:48:47.794Z,13.33
2018-11-01T07:51:15.982Z,13.40
2018-11-01T07:53:43.627Z,13.27
2018-11-01T07:59:10.702Z,13.10
2018-11-01T08:01:38.261Z,13.37
2018-11-01T08:04:07.868Z,12.80
2018-11-01T08:10:49.114Z,12.97
2018-11-01T08:18:51.103Z,12.00
2018-11-01T08:32:09.748Z,12.40
2018-11-01T08:42:33.133Z,8.30
2018-11-01T08:48:06.235Z,8.30
2018-11-01T08:50:33.662Z,7.00
2018-11-01T08:53:01.153Z,7.90
2018-11-01T08:55:28.548Z,7.53
2018-11-01T08:57:56.537Z,7.53
2018-11-01T09:00:24.190Z,6.97
2018-11-01T09:02:51.632Z,6.70
2018-11-01T09:05:24.126Z,6.20
2018-11-01T09:07:51.625Z,5.77
2018-11-01T09:10:19.155Z,5.43
2018-11-01T09:12:47.109Z,5.80
2018-11-01T09:16:31.701Z,6.20
2018-11-01T09:21:59.097Z,5.93
2018-11-01T09:24:27.350Z,5.50
2018-11-01T09:26:55.195Z,5.10
2018-11-01T09:29:22.681Z,5.17
2018-11-01T09:31:50.085Z,4.93
2018-11-01T09:34:17.474Z,5.47
2018-11-01T09:36:44.902Z,4.90
2018-11-01T09:39:14.081Z,5.30
2018-11-01T09:41:42.041Z,5.30
2018-11-01T09:44:09.447Z,4.40
2018-11-01T09:46:37.228Z,4.43
2018-11-01T09:49:04.625Z,4.57
2018-11-01T09:51:32.129Z,4.60
2018-11-01T09:53:59.546Z,4.90
2018-11-01T09:56:27.092Z,4.17
2018-11-01T09:58:54.492Z,3.73
2018-11-01T10:01:21.877Z,5.03
2018-11-01T10:03:49.360Z,4.43
2018-11-01T10:06:16.909Z,4.53
2018-11-01T10:08:44.321Z,4.37
2018-11-01T10:11:11.728Z,4.60
2018-11-01T10:13:39.228Z,4.97
2018-11-01T10:16:06.722Z,4.40
2018-11-01T10:18:34.153Z,5.20
2018-11-01T10:21:01.577Z,4.50
2018-11-01T10:23:28.983Z,4.67
2018-11-01T10:25:56.425Z,4.37
2018-11-01T10:28:23.885Z,4.90
2018-11-01T10:30:51.317Z,4.37
2018-11-01T10:33:18.737Z,4.40
2018-11-01T10:35:46.153Z,4.47
2018-11-01T10:38:13.578Z,4.60
2018-11-01T10:40:41.099Z,4.80
2018-11-01T10:43:09.625Z,4.47
2018-11-01T10:45:37.105Z,4.40
2018-11-01T10:48:04.588Z,4.67
2018-11-01T10:50:32.065Z,4.43
2018-11-01T10:52:59.473Z,5.00
2018-11-01T10:55:26.918Z,5.23
2018-11-01T10:57:54.882Z,5.00
2018-11-01T11:00:28.531Z,4.40
2018-11-01T11:02:55.799Z,4.80
2018-11-01T11:05:23.257Z,4.93
2018-11-01T11:07:50.957Z,5.17
2018-11-01T11:10:30.409Z,5.30
2018-11-01T11:12:58.065Z,5.00
2018-11-01T11:15:26.347Z,4.77
2018-11-01T11:17:54.195Z,5.40
2018-11-01T11:20:22.025Z,5.30
2018-11-01T11:22:59.876Z,5.53
2018-11-01T11:25:27.767Z,5.20
2018-11-01T11:27:55.441Z,4.93
2018-11-01T11:30:25.337Z,4.73
2018-11-01T11:32:53.147Z,5.13
2018-11-01T11:35:20.745Z,5.10
2018-11-01T11:37:48.284Z,5.50
2018-11-01T11:40:16.370Z,5.27
2018-11-01T11:42:44.164Z,5.20
2018-11-01T11:45:13.414Z,5.73
2018-11-01T11:47:44.531Z,4.87
2018-11-01T11:50:13.937Z,5.10
2018-11-01T11:52:44.648Z,4.90
2018-11-01T11:55:12.515Z,5.53
2018-11-01T12:00:34.941Z,5.17
2018-11-01T12:05:42.060Z,4.37
2018-11-01T12:08:10.660Z,4.70
2018-11-01T12:13:48.155Z,4.50
2018-11-01T12:16:15.858Z,4.27
2018-11-01T12:18:44.283Z,4.23
2018-11-01T12:21:11.842Z,4.33
2018-11-01T12:23:39.371Z,4.63
2018-11-01T12:26:07.034Z,4.87
2018-11-01T12:28:34.833Z,4.30
2018-11-01T12:31:02.457Z,4.20
2018-11-01T12:33:30.124Z,4.30
2018-11-01T12:36:00.848Z,4.50
2018-11-01T12:38:28.516Z,4.30
2018-11-01T12:41:04.050Z,4.33
2018-11-01T12:43:31.687Z,4.40
2018-11-01T12:45:59.285Z,3.80
2018-11-01T12:48:27.178Z,3.80
2018-11-01T12:50:54.978Z,3.93
2018-11-01T12:53:22.537Z,4.03
2018-11-01T12:55:50.204Z,4.13
2018-11-01T12:58:17.940Z,3.93
2018-11-01T13:00:45.483Z,4.67
2018-11-01T13:03:13.081Z,4.47
2018-11-01T13:05:47.442Z,4.33
2018-11-01T13:08:15.123Z,4.47
2018-11-01T13:10:43.000Z,4.20
2018-11-01T13:13:10.644Z,3.83
2018-11-01T13:15:38.183Z,3.93
2018-11-01T13:18:06.036Z,4.03
2018-11-01T13:20:33.559Z,3.60
2018-11-01T13:23:01.341Z,4.10
2018-11-01T13:25:31.105Z,4.27
2018-11-01T13:27:58.846Z,4.27
2018-11-01T13:30:26.415Z,4.13
2018-11-01T13:32:54.021Z,4.17
2018-11-01T13:35:21.821Z,3.80
2018-11-01T13:37:55.035Z,4.07
2018-11-01T13:40:22.817Z,3.87
2018-11-01T13:42:50.569Z,3.73
2018-11-01T13:45:19.825Z,4.00
2018-11-01T13:47:47.420Z,4.17
2018-11-01T13:50:15.029Z,3.90
2018-11-01T13:52:42.593Z,3.20
2018-11-01T13:55:11.345Z,3.30
2018-11-01T13:57:39.343Z,3.90
2018-11-01T14:00:07.995Z,3.50
2018-11-01T14:02:39.203Z,3.43
2018-11-01T14:05:09.400Z,3.53
2018-11-01T14:07:37.371Z,3.60
2018-11-01T14:10:06.574Z,3.33
2018-11-01T14:12:34.238Z,3.60
2018-11-01T14:15:02.311Z,3.57
2018-11-01T14:17:29.565Z,3.00
2018-11-01T14:19:57.199Z,3.03
2018-11-01T14:22:24.999Z,3.37
2018-11-01T14:24:52.833Z,3.37
2018-11-01T14:27:20.636Z,3.50
2018-11-01T14:29:48.952Z,4.13
2018-11-01T14:32:17.038Z,3.70
2018-11-01T14:34:48.913Z,3.53
2018-11-01T14:37:16.581Z,4.37
2018-11-01T14:39:45.331Z,4.00
2018-11-01T14:42:13.038Z,4.37
2018-11-01T14:44:40.886Z,5.20
2018-11-01T14:47:08.652Z,4.70
2018-11-01T14:49:36.279Z,4.90
2018-11-01T14:52:04.407Z,5.23
2018-11-01T14:54:32.539Z,5.00
2018-11-01T14:57:01.733Z,4.67
2018-11-01T14:59:29.724Z,4.70
2018-11-01T15:01:55.570Z,4.97
2018-11-01T15:04:24.112Z,5.20
2018-11-01T15:06:52.057Z,5.03
2018-11-01T15:09:19.881Z,5.23
2018-11-01T15:11:47.819Z,4.77
2018-11-01T15:16:51.197Z,5.10
2018-11-01T15:19:21.701Z,5.00
2018-11-01T15:21:51.541Z,5.07
2018-11-01T15:24:19.351Z,5.17
2018-11-01T15:27:18.395Z,4.97
2018-11-01T15:29:53.088Z,4.83
2018-11-01T15:32:26.661Z,5.00
2018-11-01T15:34:54.513Z,4.60
2018-11-01T15:37:22.411Z,4.20
2018-11-01T15:39:50.298Z,4.60
2018-11-01T15:42:18.511Z,4.23
2018-11-01T15:44:46.656Z,4.80
2018-11-01T15:47:16.573Z,5.23
2018-11-01T15:49:44.360Z,5.60
2018-11-01T15:52:12.381Z,5.13
2018-11-01T15:54:40.485Z,5.70
2018-11-01T15:57:09.049Z,5.80
2018-11-01T15:59:37.451Z,5.67
2018-11-01T16:02:05.618Z,5.73
2018-11-01T16:04:33.728Z,6.00
2018-11-01T16:07:03.004Z,5.70
2018-11-01T16:09:31.314Z,5.63
2018-11-01T16:11:59.575Z,5.93
2018-11-01T16:14:27.357Z,5.90
2018-11-01T16:16:55.413Z,5.67
2018-11-01T16:19:23.405Z,6.10
2018-11-01T16:21:51.783Z,6.60
2018-11-01T16:24:19.872Z,6.60
2018-11-01T16:26:47.883Z,6.67
2018-11-01T16:29:16.829Z,6.27
2018-11-01T16:31:45.044Z,6.70
2018-11-01T16:34:14.495Z,6.50
2018-11-01T16:36:45.737Z,6.33
2018-11-01T16:39:13.738Z,6.40
2018-11-01T16:41:41.488Z,6.60
2018-11-01T16:47:08.537Z,6.87
2018-11-01T16:49:37.027Z,6.43
2018-11-01T16:52:05.074Z,5.93
2018-11-01T16:54:32.894Z,6.77
2018-11-01T16:57:01.297Z,6.77
2018-11-01T16:59:29.178Z,7.43
2018-11-01T17:01:57.227Z,7.43
2018-11-01T17:04:24.764Z,7.10
2018-11-01T17:06:52.306Z,7.53
2018-11-01T17:09:19.753Z,7.23
2018-11-01T17:11:47.140Z,7.77
2018-11-01T17:14:14.649Z,7.40
2018-11-01T17:16:42.057Z,8.53
2018-11-01T17:19:09.510Z,9.07
2018-11-01T17:21:37.440Z,9.30
2018-11-01T17:24:04.964Z,9.13
2018-11-01T17:26:32.502Z,9.60
2018-11-01T17:29:00.032Z,10.03
2018-11-01T17:31:27.673Z,9.40
2018-11-01T17:33:55.133Z,9.97
2018-11-01T17:36:22.669Z,9.37
2018-11-01T17:38:50.145Z,11.97
2018-11-01T17:41:17.591Z,11.87
2018-11-01T17:43:45.074Z,11.23
2018-11-01T17:46:12.590Z,12.33
2018-11-01T17:48:39.939Z,13.07
2018-11-01T17:51:07.493Z,12.47
2018-11-01T17:53:35.016Z,12.77
2018-11-01T17:56:02.456Z,12.83
2018-11-01T17:58:29.844Z,13.07
2018-11-01T18:00:57.277Z,13.37
2018-11-01T18:03:24.663Z,13.33
2018-11-01T18:05:52.132Z,14.50
2018-11-01T18:08:19.643Z,15.07
2018-11-01T18:10:46.997Z,13.73
2018-11-01T18:13:14.453Z,15.27
2018-11-01T18:15:41.924Z,14.83
2018-11-01T18:18:09.355Z,14.40
2018-11-01T18:20:36.778Z,15.50
2018-11-01T18:23:04.267Z,15.03
2018-11-01T18:25:31.824Z,16.80
2018-11-01T18:27:59.184Z,15.43
2018-11-01T18:30:26.602Z,15.60
2018-11-01T18:32:54.131Z,16.70
2018-11-01T18:35:21.426Z,15.07
2018-11-01T18:37:48.870Z,17.20
2018-11-01T18:40:17.515Z,16.97
2018-11-01T18:42:44.875Z,17.33
2018-11-01T18:45:13.556Z,16.57
2018-11-01T18:47:41.593Z,17.60
2018-11-01T18:50:10.010Z,17.67
2018-11-01T18:52:37.481Z,17.47
2018-11-01T18:55:06.118Z,16.77
2018-11-01T18:57:33.561Z,17.97
2018-11-01T19:00:01.070Z,16.80
2018-11-01T19:02:28.503Z,16.93
2018-11-01T19:04:55.916Z,17.43
2018-11-01T19:07:23.522Z,16.47
2018-11-01T19:09:50.889Z,16.97
2018-11-01T19:12:18.297Z,16.87
2018-11-01T19:14:45.738Z,16.33
2018-11-01T19:17:13.150Z,17.07
2018-11-01T19:19:40.757Z,16.60
2018-11-01T19:22:07.980Z,17.47
2018-11-01T19:24:35.402Z,16.70
2018-11-01T19:27:02.918Z,16.97
2018-11-01T19:29:30.301Z,16.17
2018-11-01T19:31:57.689Z,17.93
2018-11-01T19:34:25.214Z,16.93
2018-11-01T19:36:52.608Z,17.93
2018-11-01T19:39:20.065Z,16.00
2018-11-01T19:41:47.491Z,15.53
2018-11-01T19:44:14.878Z,17.17
2018-11-01T19:46:42.309Z,17.30
2018-11-01T19:49:12.661Z,17.57
2018-11-01T19:51:40.097Z,15.97
2018-11-01T19:54:07.623Z,16.57
2018-11-01T19:56:34.958Z,17.60
2018-11-01T19:59:02.439Z,18.57
2018-11-01T20:01:29.825Z,18.70
2018-11-01T20:03:57.210Z,17.43
2018-11-01T20:06:24.640Z,17.63
2018-11-01T20:08:52.089Z,17.40
2018-11-01T20:11:19.581Z,18.33
2018-11-01T20:13:47.034Z,17.83
2018-11-01T20:16:14.451Z,17.03
2018-11-01T20:18:42.060Z,18.63
2018-11-01T20:21:09.293Z,18.87
2018-11-01T20:23:36.704Z,17.93
2018-11-01T20:26:04.197Z,17.90
2018-11-01T20:28:31.614Z,17.63
2018-11-01T20:30:59.085Z,18.80
2018-11-01T20:33:26.556Z,18.60
2018-11-01T20:35:53.940Z,18.40
2018-11-01T20:38:21.456Z,17.60
2018-11-01T20:40:48.789Z,18.43
2018-11-01T20:43:16.205Z,19.07
2018-11-01T20:45:43.616Z,18.97
2018-11-01T20:48:11.079Z,17.30
2018-11-01T20:50:38.475Z,18.73
2018-11-01T20:53:05.953Z,18.10
2018-11-01T20:55:33.406Z,18.87
2018-11-01T20:58:00.817Z,17.23
2018-11-01T21:00:28.237Z,17.90
2018-11-01T21:02:55.692Z,16.67
2018-11-01T21:05:23.248Z,17.07
2018-11-01T21:07:50.696Z,17.37
2018-11-01T21:10:18.164Z,17.17
2018-11-01T21:12:45.686Z,17.23
2018-11-01T21:15:13.861Z,17.87
2018-11-01T21:17:41.297Z,17.33
2018-11-01T21:20:09.004Z,17.40
2018-11-01T21:22:36.419Z,16.67
2018-11-01T21:25:04.075Z,16.67
2018-11-01T21:27:31.514Z,16.57
2018-11-01T21:29:58.910Z,17.80
2018-11-01T21:32:26.330Z,17.50
2018-11-01T21:34:53.768Z,17.90
2018-11-01T21:37:21.216Z,18.17
2018-11-01T21:39:48.614Z,17.83
2018-11-01T21:42:16.043Z,17.70
2018-11-01T21:44:43.479Z,16.83
2018-11-01T21:47:10.873Z,16.10
2018-11-01T21:49:38.261Z,18.13
2018-11-01T21:52:05.809Z,17.20
2018-11-01T21:54:33.357Z,18.27
2018-11-01T21:57:00.837Z,17.70
2018-11-01T21:59:28.248Z,15.57
2018-11-01T22:01:55.666Z,16.73
2018-11-01T22:04:23.089Z,16.90
2018-11-01T22:06:50.513Z,17.83
2018-11-01T22:09:17.920Z,17.27
2018-11-01T22:11:45.366Z,18.00
2018-11-01T22:14:12.798Z,17.50
2018-11-01T22:16:40.199Z,17.80
2018-11-01T22:19:07.654Z,16.53
2018-11-01T22:21:35.333Z,17.80
2018-11-01T22:24:02.741Z,16.47
2018-11-01T22:26:30.186Z,17.87
2018-11-01T22:28:57.625Z,18.63
2018-11-01T22:31:25.241Z,18.63
2018-11-01T22:33:52.670Z,17.50
2018-11-01T22:36:20.064Z,19.00
2018-11-01T22:38:47.603Z,18.33
2018-11-01T22:41:14.985Z,18.60
2018-11-01T22:43:42.374Z,17.13
2018-11-01T22:46:09.864Z,18.33
2018-11-01T22:48:37.306Z,18.93
2018-11-01T22:51:05.293Z,17.37
2018-11-01T22:53:32.794Z,19.07
2018-11-01T22:56:00.157Z,19.10
2018-11-01T22:58:27.605Z,18.10
2018-11-01T23:00:55.738Z,18.03
2018-11-01T23:03:23.137Z,15.93
2018-11-01T23:05:50.545Z,18.60
2018-11-01T23:08:17.971Z,17.37
2018-11-01T23:10:45.409Z,18.27
2018-11-01T23:13:12.822Z,19.30
2018-11-01T23:15:40.268Z,17.77
2018-11-01T23:18:07.670Z,18.77
2018-11-01T23:20:35.092Z,19.37
2018-11-01T23:23:02.522Z,20.57
2018-11-01T23:25:29.942Z,19.83
2018-11-01T23:27:57.370Z,20.67
2018-11-01T23:30:24.808Z,20.60
2018-11-01T23:32:52.206Z,21.10
2018-11-01T23:35:19.593Z,19.83
2018-11-01T23:37:52.738Z,18.67
2018-11-01T23:40:26.030Z,18.57
2018-11-01T23:42:59.230Z,16.43
2018-11-01T23:45:32.349Z,17.80
2018-11-01T23:47:59.379Z,17.10
2018-11-01T23:50:33.533Z,16.57
2018-11-01T23:55:54.551Z,16.77
2018-11-01T23:58:21.974Z,18.80
